createdAt,value
2018-08-22T00:00:22.773Z,1.27
2018-08-22T00:03:06.660Z,1.40
2018-08-22T00:05:50.375Z,1.40
2018-08-22T00:08:39.516Z,1.23
2018-08-22T00:11:23.174Z,1.20
2018-08-22T00:14:06.859Z,1.30
2018-08-22T00:16:50.584Z,0.97
2018-08-22T00:19:34.281Z,1.60
2018-08-22T00:22:17.954Z,1.47
2018-08-22T00:25:02.669Z,1.27
2018-08-22T00:27:46.284Z,1.60
2018-08-22T00:30:29.929Z,1.40
2018-08-22T00:33:13.582Z,1.33
2018-08-22T00:35:57.197Z,1.00
2018-08-22T00:38:40.805Z,1.60
2018-08-22T00:41:24.416Z,1.20
2018-08-22T00:44:08.065Z,1.50
2018-08-22T00:46:51.664Z,1.27
2018-08-22T00:49:35.327Z,1.43
2018-08-22T00:52:18.948Z,1.23
2018-08-22T00:55:02.553Z,1.60
2018-08-22T00:57:46.170Z,1.57
2018-08-22T01:00:29.781Z,1.57
2018-08-22T01:03:13.405Z,2.30
2018-08-22T01:05:56.847Z,1.10
2018-08-22T01:08:40.366Z,1.40
2018-08-22T01:11:24.373Z,1.30
2018-08-22T01:14:08.014Z,1.40
2018-08-22T01:16:51.681Z,1.10
2018-08-22T01:19:35.413Z,1.50
2018-08-22T01:22:19.060Z,1.20
2018-08-22T01:25:02.699Z,1.13
2018-08-22T01:27:46.572Z,1.40
2018-08-22T01:30:30.245Z,1.33
2018-08-22T01:33:13.888Z,1.60
2018-08-22T01:35:57.539Z,1.43
2018-08-22T01:38:41.174Z,1.50
2018-08-22T01:41:24.869Z,1.20
2018-08-22T01:44:08.461Z,1.60
2018-08-22T01:46:52.078Z,1.40
2018-08-22T01:49:35.722Z,1.93
2018-08-22T01:52:19.383Z,1.80
2018-08-22T01:55:02.852Z,1.53
2018-08-22T01:57:46.408Z,1.40
2018-08-22T02:00:30.013Z,1.60
2018-08-22T02:03:13.682Z,1.70
2018-08-22T02:05:57.357Z,1.33
2018-08-22T02:08:40.981Z,1.40
2018-08-22T02:11:24.593Z,1.40
2018-08-22T02:14:08.922Z,1.30
2018-08-22T02:16:52.545Z,1.70
2018-08-22T02:19:36.224Z,1.57
2018-08-22T02:22:19.921Z,1.50
2018-08-22T02:25:03.765Z,1.50
2018-08-22T02:27:47.452Z,1.20
2018-08-22T02:30:31.112Z,1.43
2018-08-22T02:33:14.816Z,1.43
2018-08-22T02:35:58.424Z,1.47
2018-08-22T02:38:42.146Z,1.40
2018-08-22T02:44:15.933Z,1.70
2018-08-22T02:46:59.585Z,1.43
2018-08-22T02:49:43.849Z,1.80
2018-08-22T02:52:27.527Z,1.63
2018-08-22T02:55:10.982Z,2.30
2018-08-22T02:57:54.533Z,1.73
2018-08-22T03:00:38.149Z,1.37
2018-08-22T03:03:21.756Z,1.37
2018-08-22T03:06:05.378Z,1.43
2018-08-22T03:08:49.022Z,1.50
2018-08-22T03:11:32.615Z,1.93
2018-08-22T03:14:16.266Z,1.63
2018-08-22T03:16:59.878Z,1.30
2018-08-22T03:19:43.537Z,1.33
2018-08-22T03:22:27.193Z,1.50
2018-08-22T03:25:10.814Z,1.90
2018-08-22T03:27:54.478Z,1.60
2018-08-22T03:30:38.123Z,1.40
2018-08-22T03:33:21.721Z,1.90
2018-08-22T03:36:05.357Z,1.70
2018-08-22T03:38:49.077Z,1.50
2018-08-22T03:41:33.586Z,1.40
2018-08-22T03:44:17.246Z,1.70
2018-08-22T03:47:01.022Z,1.63
2018-08-22T03:49:44.769Z,1.50
2018-08-22T03:52:28.346Z,1.57
2018-08-22T03:55:12.027Z,1.80
2018-08-22T03:57:55.636Z,1.60
2018-08-22T04:00:39.342Z,1.50
2018-08-22T04:03:22.950Z,1.77
2018-08-22T04:06:06.599Z,1.63
2018-08-22T04:08:50.458Z,1.80
2018-08-22T04:11:34.099Z,1.90
2018-08-22T04:14:17.717Z,2.00
2018-08-22T04:17:01.369Z,1.80
2018-08-22T04:19:45.031Z,1.73
2018-08-22T04:22:28.645Z,2.50
2018-08-22T04:25:12.279Z,1.83
2018-08-22T04:27:55.889Z,2.10
2018-08-22T04:30:39.531Z,2.00
2018-08-22T04:33:23.202Z,1.90
2018-08-22T04:36:06.842Z,1.93
2018-08-22T04:38:50.490Z,2.30
2018-08-22T04:41:34.118Z,2.10
2018-08-22T04:44:17.692Z,1.90
2018-08-22T04:47:01.360Z,1.50
2018-08-22T04:49:45.041Z,2.13
2018-08-22T04:52:28.713Z,2.00
2018-08-22T04:55:12.385Z,2.13
2018-08-22T04:57:56.077Z,2.00
2018-08-22T05:00:39.673Z,2.20
2018-08-22T05:03:23.277Z,4.10
2018-08-22T05:06:06.918Z,5.70
2018-08-22T05:08:50.533Z,1.87
2018-08-22T05:11:34.196Z,2.37
2018-08-22T05:14:17.893Z,5.23
2018-08-22T05:17:01.547Z,1.80
2018-08-22T05:19:45.128Z,2.10
2018-08-22T05:22:28.807Z,2.80
2018-08-22T05:25:12.381Z,1.80
2018-08-22T05:27:56.129Z,2.17
2018-08-22T05:30:39.745Z,2.27
2018-08-22T05:33:23.967Z,2.27
2018-08-22T05:36:07.550Z,2.60
2018-08-22T05:38:51.325Z,2.97
2018-08-22T05:41:34.960Z,2.67
2018-08-22T05:44:18.633Z,2.83
2018-08-22T05:47:02.223Z,2.50
2018-08-22T05:49:45.845Z,2.63
2018-08-22T05:52:29.491Z,2.70
2018-08-22T05:55:13.126Z,2.00
2018-08-22T05:57:57.758Z,2.07
2018-08-22T06:00:41.385Z,2.70
2018-08-22T06:03:25.076Z,2.60
2018-08-22T06:06:08.708Z,2.60
2018-08-22T06:08:52.319Z,1.87
2018-08-22T06:11:36.025Z,2.27
2018-08-22T06:14:19.668Z,2.60
2018-08-22T06:17:03.306Z,2.40
2018-08-22T06:19:46.923Z,2.53
2018-08-22T06:22:30.497Z,2.43
2018-08-22T06:25:14.158Z,1.83
2018-08-22T06:27:58.791Z,2.33
2018-08-22T06:30:42.414Z,2.63
2018-08-22T06:33:26.070Z,2.60
2018-08-22T06:36:09.771Z,2.20
2018-08-22T06:38:53.339Z,2.20
2018-08-22T06:41:37.000Z,2.37
2018-08-22T06:44:20.648Z,2.20
2018-08-22T06:47:04.239Z,2.37
2018-08-22T06:49:47.851Z,3.10
2018-08-22T06:52:31.470Z,1.97
2018-08-22T06:55:15.165Z,2.07
2018-08-22T06:57:58.789Z,2.30
2018-08-22T07:01:01.061Z,2.23
2018-08-22T07:03:44.604Z,2.10
2018-08-22T07:06:28.345Z,2.50
2018-08-22T07:09:12.876Z,3.23
2018-08-22T07:11:56.510Z,2.20
2018-08-22T07:14:40.186Z,2.67
2018-08-22T07:17:23.757Z,2.33
2018-08-22T07:20:07.758Z,1.80
2018-08-22T07:22:51.418Z,2.07
2018-08-22T07:25:35.041Z,1.90
2018-08-22T07:28:18.739Z,2.27
2018-08-22T07:31:02.396Z,2.00
2018-08-22T07:33:46.014Z,4.13
2018-08-22T07:36:29.623Z,2.43
2018-08-22T07:39:13.840Z,1.80
2018-08-22T07:41:57.475Z,3.10
2018-08-22T07:44:41.156Z,3.23
2018-08-22T07:47:24.721Z,1.97
2018-08-22T07:50:08.410Z,2.23
2018-08-22T07:52:57.335Z,1.90
2018-08-22T07:55:42.186Z,1.50
2018-08-22T07:58:25.733Z,1.40
2018-08-22T08:01:09.399Z,2.10
2018-08-22T08:03:53.034Z,1.50
2018-08-22T08:06:36.689Z,2.00
2018-08-22T08:09:20.332Z,1.70
2018-08-22T08:12:03.947Z,2.17
2018-08-22T08:14:51.840Z,2.07
2018-08-22T08:17:35.478Z,2.53
2018-08-22T08:20:18.890Z,1.97
2018-08-22T08:23:02.425Z,2.00
2018-08-22T08:25:46.118Z,1.90
2018-08-22T08:28:29.933Z,2.10
2018-08-22T08:31:13.609Z,2.20
2018-08-22T08:33:57.304Z,1.67
2018-08-22T08:36:40.965Z,1.90
2018-08-22T08:39:24.565Z,2.00
2018-08-22T08:42:08.262Z,1.87
2018-08-22T08:44:51.894Z,1.90
2018-08-22T08:47:35.549Z,1.83
2018-08-22T08:50:19.160Z,2.20
2018-08-22T08:53:02.588Z,2.40
2018-08-22T08:55:46.120Z,1.77
2018-08-22T08:58:29.790Z,1.93
2018-08-22T09:01:13.375Z,2.07
2018-08-22T09:03:57.108Z,1.87
2018-08-22T09:06:41.554Z,2.20
2018-08-22T09:09:25.204Z,1.90
2018-08-22T09:12:09.032Z,1.93
2018-08-22T09:14:52.616Z,2.20
2018-08-22T09:17:36.378Z,1.67
2018-08-22T09:20:19.974Z,2.00
2018-08-22T09:23:03.878Z,2.50
2018-08-22T09:25:47.504Z,1.63
2018-08-22T09:28:31.237Z,1.60
2018-08-22T09:31:14.864Z,2.00
2018-08-22T09:33:58.499Z,1.50
2018-08-22T09:36:42.099Z,1.50
2018-08-22T09:39:25.788Z,1.90
2018-08-22T09:42:09.407Z,1.70
2018-08-22T09:44:53.016Z,1.57
2018-08-22T09:47:36.711Z,1.90
2018-08-22T09:50:20.257Z,1.60
2018-08-22T09:53:03.911Z,1.70
2018-08-22T09:55:47.538Z,1.60
2018-08-22T09:58:31.179Z,1.83
2018-08-22T10:01:21.205Z,4.00
2018-08-22T10:04:04.806Z,1.77
2018-08-22T10:06:49.797Z,1.53
2018-08-22T10:09:33.370Z,2.10
2018-08-22T10:12:17.055Z,1.60
2018-08-22T10:15:00.611Z,1.60
2018-08-22T10:17:44.241Z,1.90
2018-08-22T10:20:28.578Z,1.50
2018-08-22T10:23:12.196Z,1.23
2018-08-22T10:25:55.848Z,1.30
2018-08-22T10:28:40.191Z,1.50
2018-08-22T10:31:24.609Z,1.60
2018-08-22T10:34:08.253Z,1.70
2018-08-22T10:36:51.946Z,1.57
2018-08-22T10:39:35.682Z,1.70
2018-08-22T10:42:19.276Z,1.40
2018-08-22T10:45:02.932Z,1.33
2018-08-22T10:47:46.612Z,1.90
2018-08-22T10:50:30.299Z,1.70
2018-08-22T10:53:13.877Z,1.30
2018-08-22T10:55:57.498Z,1.33
2018-08-22T10:58:41.156Z,1.47
2018-08-22T11:01:24.557Z,1.93
2018-08-22T11:04:08.133Z,1.17
2018-08-22T11:06:51.740Z,1.70
2018-08-22T11:09:35.417Z,1.60
2018-08-22T11:12:19.010Z,1.40
2018-08-22T11:15:02.638Z,1.47
2018-08-22T11:17:46.232Z,1.50
2018-08-22T11:20:31.517Z,1.37
2018-08-22T11:23:27.829Z,1.30
2018-08-22T11:26:22.826Z,1.33
2018-08-22T11:29:18.862Z,1.90
2018-08-22T11:32:13.823Z,1.40
2018-08-22T11:34:56.457Z,1.60
2018-08-22T11:37:40.078Z,1.47
2018-08-22T11:40:23.534Z,1.50
2018-08-22T11:43:06.886Z,1.70
2018-08-22T11:45:50.298Z,1.97
2018-08-22T11:48:33.895Z,1.87
2018-08-22T11:51:17.543Z,1.80
2018-08-22T11:54:01.180Z,1.80
2018-08-22T11:56:44.819Z,1.73
2018-08-22T11:59:28.421Z,2.20
2018-08-22T12:02:11.894Z,1.60
2018-08-22T12:04:55.371Z,1.43
2018-08-22T12:07:38.824Z,1.67
2018-08-22T12:10:27.635Z,1.83
2018-08-22T12:13:11.271Z,1.87
2018-08-22T12:15:54.898Z,2.20
2018-08-22T12:18:38.526Z,2.20
2018-08-22T12:21:22.198Z,2.10
2018-08-22T12:24:05.859Z,2.07
2018-08-22T12:26:49.507Z,1.77
2018-08-22T12:29:32.906Z,2.60
2018-08-22T12:32:16.467Z,1.80
2018-08-22T12:35:00.097Z,1.90
2018-08-22T12:37:43.571Z,2.20
2018-08-22T12:40:27.133Z,2.20
2018-08-22T12:43:10.774Z,2.80
2018-08-22T12:45:55.057Z,2.27
2018-08-22T12:48:38.738Z,2.27
2018-08-22T12:51:22.396Z,3.20
2018-08-22T12:54:06.020Z,3.50
2018-08-22T12:56:49.743Z,3.23
2018-08-22T12:59:33.434Z,3.20
2018-08-22T13:02:17.113Z,2.70
2018-08-22T13:05:00.899Z,4.13
2018-08-22T13:07:44.532Z,3.20
2018-08-22T13:10:28.254Z,3.43
2018-08-22T13:13:12.486Z,3.50
2018-08-22T13:15:56.151Z,2.60
2018-08-22T13:18:39.837Z,3.30
2018-08-22T13:21:24.294Z,2.97
2018-08-22T13:24:08.018Z,3.10
2018-08-22T13:26:51.549Z,4.13
2018-08-22T13:29:35.175Z,3.60
2018-08-22T13:32:18.827Z,3.20
2018-08-22T13:35:04.154Z,3.60
2018-08-22T13:37:47.756Z,3.37
2018-08-22T13:40:32.274Z,3.30
2018-08-22T13:43:16.841Z,4.20
2018-08-22T13:46:00.463Z,3.50
2018-08-22T13:48:44.131Z,3.20
2018-08-22T13:51:27.769Z,3.80
2018-08-22T13:54:11.379Z,3.10
2018-08-22T13:56:54.979Z,3.60
2018-08-22T13:59:38.631Z,3.20
2018-08-22T14:02:22.216Z,4.10
2018-08-22T14:05:05.948Z,4.03
2018-08-22T14:07:49.600Z,4.00
2018-08-22T14:10:33.211Z,3.20
2018-08-22T14:13:16.800Z,5.90
2018-08-22T14:16:00.245Z,4.60
2018-08-22T14:18:43.720Z,4.60
2018-08-22T14:21:27.429Z,4.33
2018-08-22T14:24:11.059Z,3.73
2018-08-22T14:26:54.721Z,3.70
2018-08-22T14:29:38.333Z,3.40
2018-08-22T14:32:22.089Z,4.53
2018-08-22T14:35:05.690Z,4.60
2018-08-22T14:37:49.351Z,3.87
2018-08-22T14:40:32.982Z,4.30
2018-08-22T14:43:17.171Z,4.30
2018-08-22T14:46:00.936Z,3.20
2018-08-22T14:48:44.544Z,3.80
2018-08-22T14:51:27.972Z,4.10
2018-08-22T14:54:12.435Z,4.67
2018-08-22T14:56:56.054Z,3.53
2018-08-22T14:59:39.729Z,3.80
2018-08-22T15:02:23.335Z,5.63
2018-08-22T15:05:06.970Z,5.70
2018-08-22T15:07:50.598Z,4.83
2018-08-22T15:10:34.252Z,4.60
2018-08-22T15:13:17.874Z,4.10
2018-08-22T15:16:01.519Z,3.50
2018-08-22T15:18:49.528Z,3.50
2018-08-22T15:21:40.083Z,4.33
2018-08-22T15:24:24.891Z,3.70
2018-08-22T15:27:12.996Z,3.70
2018-08-22T15:30:00.559Z,3.67
2018-08-22T15:32:44.978Z,5.67
2018-08-22T15:35:32.900Z,3.80
2018-08-22T15:38:17.682Z,4.17
2018-08-22T15:41:02.541Z,3.63
2018-08-22T15:43:46.163Z,4.60
2018-08-22T15:46:31.862Z,4.87
2018-08-22T15:49:15.518Z,4.00
2018-08-22T15:51:59.102Z,8.83
2018-08-22T15:54:42.775Z,5.17
2018-08-22T15:57:26.613Z,4.30
2018-08-22T16:00:10.252Z,4.40
2018-08-22T16:03:03.084Z,4.40
2018-08-22T16:05:55.940Z,3.90
2018-08-22T16:08:43.823Z,4.53
2018-08-22T16:11:44.011Z,5.17
2018-08-22T16:14:28.020Z,5.43
2018-08-22T16:17:11.676Z,4.23
2018-08-22T16:19:55.329Z,3.97
2018-08-22T16:22:38.961Z,5.60
2018-08-22T16:25:23.280Z,4.33
2018-08-22T16:28:08.288Z,4.07
2018-08-22T16:30:57.700Z,4.50
2018-08-22T16:33:38.634Z,4.60
2018-08-22T16:36:28.462Z,9.67
2018-08-22T16:39:32.640Z,23.00
2018-08-22T16:49:02.232Z,7.87
2018-08-22T16:51:48.185Z,5.50
2018-08-22T16:54:33.940Z,5.00
2018-08-22T16:57:18.319Z,5.50
2018-08-22T17:00:02.008Z,6.70
2018-08-22T17:02:45.794Z,12.77
2018-08-22T17:05:29.425Z,9.33
2018-08-22T17:08:13.131Z,5.10
2018-08-22T17:10:58.514Z,5.30
2018-08-22T17:13:46.262Z,7.63
2018-08-22T17:16:29.880Z,9.23
2018-08-22T17:19:13.552Z,8.37
2018-08-22T17:21:58.141Z,5.70
2018-08-22T17:24:41.818Z,5.70
2018-08-22T17:27:25.674Z,5.43
2018-08-22T17:30:09.115Z,5.37
2018-08-22T17:32:52.649Z,6.10
2018-08-22T17:35:42.501Z,7.20
2018-08-22T17:38:26.266Z,7.20
2018-08-22T17:41:09.937Z,6.23
2018-08-22T17:44:05.298Z,8.23
2018-08-22T17:46:50.101Z,5.70
2018-08-22T17:49:33.706Z,6.60
2018-08-22T17:52:17.377Z,6.53
2018-08-22T17:55:01.099Z,30.47
2018-08-22T17:57:44.676Z,8.30
2018-08-22T18:00:30.589Z,6.40
2018-08-22T18:03:14.196Z,5.67
2018-08-22T18:05:57.801Z,5.90
2018-08-22T18:08:41.540Z,7.63
2018-08-22T18:11:25.176Z,7.07
2018-08-22T18:14:08.834Z,8.93
2018-08-22T18:16:56.677Z,9.00
2018-08-22T18:19:40.314Z,7.83
2018-08-22T18:22:28.025Z,7.47
2018-08-22T18:25:11.678Z,7.77
2018-08-22T18:27:59.817Z,8.80
2018-08-22T18:30:44.766Z,9.60
2018-08-22T18:33:29.506Z,8.20
2018-08-22T18:36:14.144Z,7.80
2018-08-22T18:39:05.911Z,8.43
2018-08-22T18:41:50.362Z,9.23
2018-08-22T18:44:34.027Z,10.80
2018-08-22T18:47:17.611Z,8.90
2018-08-22T18:50:01.174Z,9.00
2018-08-22T18:52:50.543Z,10.47
2018-08-22T18:55:35.086Z,8.87
2018-08-22T18:58:18.974Z,8.77
2018-08-22T19:01:03.390Z,7.57
2018-08-22T19:03:47.046Z,8.63
2018-08-22T19:06:31.322Z,9.17
2018-08-22T19:09:14.652Z,8.30
2018-08-22T19:11:57.972Z,9.20
2018-08-22T19:14:46.998Z,8.87
2018-08-22T19:17:30.635Z,10.23
2018-08-22T19:20:14.261Z,8.50
2018-08-22T19:22:57.872Z,7.83
2018-08-22T19:25:44.218Z,7.87
2018-08-22T19:28:27.770Z,7.47
2018-08-22T19:31:11.279Z,7.90
2018-08-22T19:33:54.583Z,7.10
2018-08-22T19:36:38.094Z,7.23
2018-08-22T19:39:21.739Z,7.80
2018-08-22T19:42:05.394Z,6.90
2018-08-22T19:44:49.046Z,7.50
2018-08-22T19:47:32.817Z,6.57
2018-08-22T19:50:16.228Z,6.47
2018-08-22T19:52:59.853Z,7.27
2018-08-22T19:55:43.497Z,8.83
2018-08-22T19:58:34.730Z,6.67
2018-08-22T20:01:20.036Z,6.57
2018-08-22T20:04:03.683Z,6.80
2018-08-22T20:06:47.323Z,7.23
2018-08-22T20:09:30.943Z,6.13
2018-08-22T20:12:14.641Z,5.43
2018-08-22T20:14:58.290Z,6.63
2018-08-22T20:17:45.025Z,6.17
2018-08-22T20:20:28.652Z,5.47
2018-08-22T20:23:12.386Z,6.30
2018-08-22T20:25:55.938Z,6.03
2018-08-22T20:28:43.773Z,5.63
2018-08-22T20:31:27.427Z,5.80
2018-08-22T20:34:13.526Z,5.60
2018-08-22T20:36:57.343Z,5.60
2018-08-22T20:39:41.099Z,5.93
2018-08-22T20:42:24.730Z,4.37
2018-08-22T20:45:08.361Z,5.33
2018-08-22T20:47:57.117Z,5.20
2018-08-22T20:50:42.627Z,4.97
2018-08-22T20:53:26.249Z,4.80
2018-08-22T20:56:10.015Z,5.57
2018-08-22T20:58:53.686Z,5.47
2018-08-22T21:01:37.408Z,4.90
2018-08-22T21:04:21.000Z,5.60
2018-08-22T21:07:05.089Z,5.33
2018-08-22T21:09:48.657Z,5.70
2018-08-22T21:12:32.302Z,4.47
2018-08-22T21:15:15.956Z,4.50
2018-08-22T21:17:59.534Z,4.60
2018-08-22T21:20:43.133Z,5.47
2018-08-22T21:23:26.774Z,5.53
2018-08-22T21:26:10.410Z,14.93
2018-08-22T21:28:54.035Z,5.63
2018-08-22T21:31:37.624Z,4.43
2018-08-22T21:34:22.239Z,5.20
2018-08-22T21:37:16.011Z,5.30
2018-08-22T21:39:59.588Z,4.07
2018-08-22T21:42:43.506Z,4.90
2018-08-22T21:45:27.121Z,4.63
2018-08-22T21:48:17.374Z,4.60
2018-08-22T21:51:01.011Z,4.50
2018-08-22T21:53:44.670Z,4.87
2018-08-22T21:56:28.270Z,3.90
2018-08-22T21:59:11.907Z,4.40
2018-08-22T22:02:00.971Z,3.30
2018-08-22T22:04:45.462Z,4.10
2018-08-22T22:07:29.048Z,4.10
2018-08-22T22:10:13.167Z,3.70
2018-08-22T22:12:56.725Z,4.13
2018-08-22T22:15:42.387Z,3.70
2018-08-22T22:18:26.225Z,3.37
2018-08-22T22:21:12.789Z,3.80
2018-08-22T22:23:56.418Z,4.00
2018-08-22T22:26:40.089Z,4.20
2018-08-22T22:29:26.722Z,4.37
2018-08-22T22:32:10.351Z,3.80
2018-08-22T22:34:53.934Z,4.43
2018-08-22T22:37:37.613Z,3.70
2018-08-22T22:40:25.463Z,3.60
2018-08-22T22:43:12.730Z,3.83
2018-08-22T22:45:56.368Z,4.10
2018-08-22T22:48:41.493Z,3.47
2018-08-22T22:51:25.122Z,3.90
2018-08-22T22:54:08.729Z,4.27
2018-08-22T22:56:52.409Z,4.60
2018-08-22T22:59:35.993Z,3.80
2018-08-22T23:02:22.615Z,4.63
2018-08-22T23:05:06.579Z,4.73
2018-08-22T23:07:50.208Z,5.90
2018-08-22T23:10:33.861Z,4.70
2018-08-22T23:13:17.565Z,5.30
2018-08-22T23:16:01.192Z,5.93
2018-08-22T23:18:44.834Z,6.23
2018-08-22T23:21:28.469Z,6.37
2018-08-22T23:24:18.089Z,6.77
2018-08-22T23:27:01.765Z,6.50
2018-08-22T23:29:45.473Z,5.90
2018-08-22T23:32:29.104Z,6.90
2018-08-22T23:35:23.189Z,6.60
2018-08-22T23:38:14.334Z,6.60
2018-08-22T23:40:58.551Z,7.17
2018-08-22T23:43:47.669Z,7.33
2018-08-22T23:46:31.261Z,7.07
2018-08-22T23:49:14.923Z,7.40
2018-08-22T23:51:58.752Z,8.40
2018-08-22T23:54:45.318Z,7.57
2018-08-22T23:57:28.885Z,9.57
